Time;durP1;ratioP1;P1;durP2;ratioP2;P2;SDS_P1;SDS_P2;PMS_P1;PMS_P2;Temp;Humidity;BMP_temperature;BMP_pressure;BME280_temperature;BME280_humidity;BME280_pressure;Samples;Min_cycle;Max_cycle;Signal;HPM_P1;HPM_P2
2023/06/05 00:00:00;;;;;;;3.20;3.10;;;14.90;48.90;;;;;;6298442;27;20279;-85
2023/06/05 00:03:04;;;;;;;2.70;2.60;;;14.80;49.20;;;;;;6311615;27;20240;-84
2023/06/05 00:06:08;;;;;;;2.70;2.70;;;14.90;48.90;;;;;;6318671;27;20708;-85
2023/06/05 00:09:13;;;;;;;3.00;2.90;;;14.80;49.00;;;;;;6308977;27;20251;-84
2023/06/05 00:12:16;;;;;;;2.80;2.80;;;14.70;49.00;;;;;;6312209;27;20267;-84
2023/06/05 00:15:20;;;;;;;2.67;2.67;;;14.70;49.30;;;;;;6322935;27;20788;-85
2023/06/05 00:18:24;;;;;;;2.83;2.73;;;14.70;49.30;;;;;;6308264;27;20286;-86
2023/06/05 00:21:28;;;;;;;4.40;2.77;;;14.70;49.20;;;;;;6310731;27;20821;-85
2023/06/05 00:24:31;;;;;;;2.80;2.77;;;14.80;49.20;;;;;;6304472;27;20374;-84
2023/06/05 00:27:34;;;;;;;3.13;2.67;;;14.80;49.20;;;;;;6301718;27;20314;-86
2023/06/05 00:30:38;;;;;;;2.50;2.40;;;14.80;49.50;;;;;;6308695;27;20272;-85
2023/06/05 00:33:43;;;;;;;3.10;2.50;;;14.90;49.20;;;;;;6314935;27;20267;-85
2023/06/05 00:36:49;;;;;;;2.30;2.30;;;14.90;49.20;;;;;;6307588;27;20243;-84
2023/06/05 00:39:53;;;;;;;2.43;2.33;;;14.90;49.00;;;;;;6300441;27;20315;-84
2023/06/05 00:43:02;;;;;;;2.47;2.30;;;14.90;49.30;;;;;;6310056;27;20244;-83
2023/06/05 00:46:05;;;;;;;2.63;2.63;;;14.80;49.40;;;;;;6307556;27;20267;-83
2023/06/05 00:49:12;;;;;;;2.63;2.63;;;14.70;49.50;;;;;;6311337;27;20312;-84
2023/06/05 00:52:15;;;;;;;2.67;2.57;;;14.70;49.60;;;;;;6301296;27;20266;-85
2023/06/05 00:55:19;;;;;;;2.90;2.70;;;14.60;49.80;;;;;;6324449;27;20232;-81
2023/06/05 00:58:22;;;;;;;2.73;2.63;;;14.50;50.10;;;;;;6323121;27;20305;-85
2023/06/05 01:01:28;;;;;;;2.60;2.53;;;14.50;49.80;;;;;;6316360;27;20820;-84
2023/06/05 01:04:33;;;;;;;2.50;2.50;;;14.50;49.90;;;;;;6294949;28;20233;-85
2023/06/05 01:07:39;;;;;;;3.10;2.80;;;14.40;50.20;;;;;;6308732;27;20320;-83
2023/06/05 01:10:43;;;;;;;2.50;2.40;;;14.30;50.50;;;;;;6307732;28;20560;-84
2023/06/05 01:13:52;;;;;;;3.27;3.00;;;14.30;50.40;;;;;;6314141;27;20236;-84
2023/06/05 01:17:00;;;;;;;2.20;2.20;;;14.30;50.40;;;;;;6304115;27;20245;-84
2023/06/05 01:20:09;;;;;;;2.73;2.60;;;14.30;50.80;;;;;;6301276;27;20353;-85
2023/06/05 01:23:13;;;;;;;2.50;2.50;;;14.20;50.80;;;;;;6301247;27;20228;-83
2023/06/05 01:26:21;;;;;;;2.80;2.70;;;14.10;50.80;;;;;;6299300;28;20829;-81
2023/06/05 01:29:31;;;;;;;2.77;2.60;;;14.20;50.80;;;;;;6314696;27;20247;-84
2023/06/05 01:32:54;;;;;;;3.30;3.00;;;14.10;51.00;;;;;;6309369;27;20357;-84
2023/06/05 01:36:04;;;;;;;2.53;2.53;;;14.10;51.10;;;;;;6311225;27;20307;-84
2023/06/05 01:39:10;;;;;;;2.80;2.73;;;14.10;51.00;;;;;;6306175;27;20221;-86
2023/06/05 01:42:14;;;;;;;2.87;2.60;;;14.10;51.00;;;;;;6298451;27;20632;-84
2023/06/05 01:45:19;;;;;;;2.50;2.50;;;14.10;51.10;;;;;;6306019;27;21631;-84
2023/06/05 01:48:23;;;;;;;2.90;2.80;;;14.10;51.20;;;;;;6304860;27;20466;-82
2023/06/05 01:51:26;;;;;;;2.70;2.60;;;14.00;51.10;;;;;;6310890;27;20316;-85
2023/06/05 01:54:33;;;;;;;2.93;2.83;;;14.00;51.30;;;;;;6301915;27;20787;-84
2023/06/05 01:57:37;;;;;;;2.70;2.60;;;14.10;50.80;;;;;;6307103;27;20229;-85
2023/06/05 02:00:41;;;;;;;3.17;2.50;;;14.10;50.90;;;;;;6321533;27;20334;-85
2023/06/05 02:03:47;;;;;;;3.00;2.90;;;14.10;50.90;;;;;;6306487;28;20348;-83
2023/06/05 02:06:52;;;;;;;2.70;2.60;;;14.00;51.00;;;;;;6310308;27;20239;-84
2023/06/05 02:10:02;;;;;;;2.93;2.87;;;14.00;51.00;;;;;;6311398;27;20237;-84
2023/06/05 02:13:12;;;;;;;2.50;2.50;;;14.00;51.10;;;;;;6294315;28;20323;-84
2023/06/05 02:16:17;;;;;;;2.67;2.57;;;14.00;50.90;;;;;;6304759;28;20332;-84
2023/06/05 02:19:20;;;;;;;2.90;2.70;;;14.00;50.90;;;;;;6316982;27;20243;-85
2023/06/05 02:22:24;;;;;;;2.80;2.70;;;14.00;50.90;;;;;;6316982;27;20228;-84
2023/06/05 02:25:29;;;;;;;2.80;2.70;;;14.00;50.90;;;;;;6313741;27;20231;-82
2023/06/05 02:28:32;;;;;;;2.97;2.77;;;13.90;51.10;;;;;;6323174;27;20232;-82
2023/06/05 02:31:36;;;;;;;2.83;2.73;;;13.90;51.00;;;;;;6318505;27;20240;-85
2023/06/05 02:34:39;;;;;;;2.80;2.70;;;13.90;51.40;;;;;;6325872;27;20739;-82
2023/06/05 02:37:44;;;;;;;2.63;2.53;;;13.80;51.20;;;;;;6322115;27;20841;-85
2023/06/05 02:40:49;;;;;;;3.03;2.93;;;13.70;51.40;;;;;;6310731;27;20872;-86
2023/06/05 02:43:53;;;;;;;2.63;2.53;;;13.70;51.40;;;;;;6312259;27;20236;-86
2023/06/05 02:46:56;;;;;;;3.07;2.87;;;13.70;51.50;;;;;;6329748;27;20279;-84
2023/06/05 02:49:59;;;;;;;2.67;2.57;;;13.60;51.60;;;;;;6332003;27;20213;-87
2023/06/05 02:53:02;;;;;;;3.00;2.80;;;13.70;51.50;;;;;;6338235;27;20220;-80
2023/06/05 02:56:08;;;;;;;2.80;2.70;;;13.60;51.50;;;;;;6342285;28;20243;-81
2023/06/05 02:59:14;;;;;;;2.60;2.50;;;13.60;51.50;;;;;;6344157;27;20326;-79
2023/06/05 03:02:17;;;;;;;3.00;3.00;;;13.60;51.40;;;;;;6335349;28;20280;-83
2023/06/05 03:05:24;;;;;;;2.60;2.60;;;13.60;51.50;;;;;;6336899;27;20220;-82
2023/06/05 03:08:28;;;;;;;2.70;2.70;;;13.50;51.60;;;;;;6344268;27;20231;-84
2023/06/05 03:11:33;;;;;;;2.80;2.80;;;13.60;51.60;;;;;;6334168;27;20220;-83
2023/06/05 03:14:36;;;;;;;2.60;2.50;;;13.50;51.80;;;;;;6345934;27;20241;-83
2023/06/05 03:17:41;;;;;;;2.80;2.70;;;13.50;51.80;;;;;;6352782;27;20220;-82
2023/06/05 03:20:45;;;;;;;2.50;2.50;;;13.50;51.70;;;;;;6340682;27;20282;-83
2023/06/05 03:23:48;;;;;;;3.00;2.90;;;13.50;51.80;;;;;;6333983;27;20661;-77
2023/06/05 03:26:52;;;;;;;2.70;2.60;;;13.40;52.00;;;;;;6339775;28;20236;-78
2023/06/05 03:29:56;;;;;;;2.73;2.63;;;13.40;51.80;;;;;;6342461;28;20232;-76
2023/06/05 03:32:59;;;;;;;2.73;2.73;;;13.50;51.80;;;;;;6326246;27;20224;-77
2023/06/05 03:36:05;;;;;;;2.50;2.30;;;13.50;51.70;;;;;;6336971;28;20223;-78
2023/06/05 03:39:08;;;;;;;2.60;2.60;;;13.50;51.70;;;;;;6347686;27;20228;-79
2023/06/05 03:42:12;;;;;;;2.33;2.30;;;13.50;51.90;;;;;;6339643;28;20232;-80
2023/06/05 03:45:16;;;;;;;2.80;2.70;;;13.50;51.90;;;;;;6336407;28;20233;-75
2023/06/05 03:48:20;;;;;;;3.07;2.87;;;13.50;52.10;;;;;;6336759;27;20226;-79
2023/06/05 03:51:29;;;;;;;3.17;3.07;;;13.50;52.10;;;;;;6340553;27;20244;-79
2023/06/05 03:54:33;;;;;;;3.43;3.33;;;13.50;52.00;;;;;;6334041;27;20246;-80
2023/06/05 03:57:38;;;;;;;2.73;2.73;;;13.50;51.90;;;;;;6335260;27;20221;-78
2023/06/05 04:00:42;;;;;;;2.60;2.60;;;13.60;51.60;;;;;;6333527;28;20398;-79
2023/06/05 04:03:45;;;;;;;2.63;2.63;;;13.60;51.70;;;;;;6341921;28;20233;-78
2023/06/05 04:06:48;;;;;;;2.87;2.77;;;13.60;51.80;;;;;;6342466;27;20284;-78
2023/06/05 04:09:51;;;;;;;3.60;3.40;;;13.70;51.90;;;;;;6338843;27;20252;-81
2023/06/05 04:12:56;;;;;;;4.63;3.00;;;13.70;52.00;;;;;;6339733;27;20220;-79
2023/06/05 04:16:01;;;;;;;2.97;2.97;;;13.70;51.50;;;;;;6332579;27;20232;-81
2023/06/05 04:19:04;;;;;;;3.20;2.90;;;13.80;51.40;;;;;;6344494;27;20272;-78
2023/06/05 04:22:09;;;;;;;3.20;3.10;;;13.90;51.40;;;;;;6366426;27;20228;-79
2023/06/05 04:25:13;;;;;;;2.97;2.97;;;13.90;51.40;;;;;;6306187;28;20262;-82
2023/06/05 04:28:18;;;;;;;3.10;3.00;;;13.90;51.30;;;;;;6313383;28;20342;-82
2023/06/05 04:31:23;;;;;;;3.03;2.90;;;14.00;51.10;;;;;;6307632;28;20264;-79
2023/06/05 04:34:26;;;;;;;2.57;2.57;;;14.00;51.00;;;;;;6302919;28;20229;-82
2023/06/05 04:37:29;;;;;;;3.13;2.80;;;14.10;51.10;;;;;;6303636;28;20233;-79
2023/06/05 04:40:33;;;;;;;2.90;2.60;;;14.10;50.90;;;;;;6321940;27;20626;-81
2023/06/05 04:43:38;;;;;;;3.03;2.90;;;14.20;51.00;;;;;;6311262;27;20235;-80
2023/06/05 04:46:43;;;;;;;3.60;3.00;;;14.30;50.90;;;;;;6332643;27;20235;-81
2023/06/05 04:49:47;;;;;;;2.70;2.60;;;14.40;51.00;;;;;;6310015;27;20247;-79
2023/06/05 04:52:52;;;;;;;2.83;2.80;;;14.50;51.30;;;;;;6313033;27;20305;-81
2023/06/05 04:56:00;;;;;;;2.33;2.33;;;14.60;51.30;;;;;;6313832;27;20230;-81
2023/06/05 04:59:04;;;;;;;3.20;3.10;;;14.80;51.50;;;;;;6312965;27;20301;-79
2023/06/05 05:02:07;;;;;;;3.07;2.80;;;15.00;51.10;;;;;;6299951;28;20237;-81
2023/06/05 05:05:13;;;;;;;2.57;2.50;;;15.30;50.30;;;;;;6306578;27;20232;-80
2023/06/05 05:08:16;;;;;;;3.20;3.00;;;15.60;50.20;;;;;;6307393;27;20228;-79
2023/06/05 05:11:20;;;;;;;2.97;2.87;;;15.80;49.20;;;;;;6306440;27;20832;-86
2023/06/05 05:14:26;;;;;;;3.03;2.90;;;16.20;48.80;;;;;;6307779;27;21062;-78
2023/06/05 05:17:30;;;;;;;3.00;2.90;;;16.50;48.60;;;;;;6311312;27;20266;-79
2023/06/05 05:20:34;;;;;;;3.27;2.90;;;16.80;48.00;;;;;;6308693;27;20296;-81
2023/06/05 05:23:37;;;;;;;5.57;2.70;;;17.00;47.60;;;;;;6300120;27;20310;-82
2023/06/05 05:26:40;;;;;;;3.20;2.77;;;17.40;47.50;;;;;;6301983;28;20255;-78
2023/06/05 05:29:45;;;;;;;2.90;2.80;;;17.60;46.80;;;;;;6307404;28;20556;-78
2023/06/05 05:32:48;;;;;;;2.73;2.63;;;18.00;46.50;;;;;;6300608;27;20276;-80
2023/06/05 05:35:52;;;;;;;3.43;3.10;;;18.20;46.40;;;;;;6312640;28;20329;-82
2023/06/05 05:38:55;;;;;;;2.80;2.70;;;18.50;46.90;;;;;;6308216;27;20603;-79
2023/06/05 05:42:00;;;;;;;2.80;2.30;;;18.70;45.70;;;;;;6290502;28;20240;-80
2023/06/05 05:45:08;;;;;;;6.60;2.97;;;18.90;46.60;;;;;;6311585;28;20715;-79
2023/06/05 05:48:12;;;;;;;3.57;2.93;;;19.20;45.50;;;;;;6319999;27;20680;-79
2023/06/05 05:51:15;;;;;;;4.83;2.90;;;19.50;44.60;;;;;;6311584;28;20259;-82
2023/06/05 05:54:18;;;;;;;6.00;3.00;;;19.70;44.40;;;;;;6310711;28;20289;-81
2023/06/05 05:57:22;;;;;;;3.53;2.87;;;20.00;45.00;;;;;;6311678;27;20732;-78
2023/06/05 06:00:28;;;;;;;3.30;2.93;;;20.10;44.70;;;;;;6319365;27;20232;-79
2023/06/05 06:03:33;;;;;;;9.93;3.10;;;20.30;43.60;;;;;;6312260;27;20224;-80
2023/06/05 06:06:37;;;;;;;3.40;2.83;;;20.60;43.80;;;;;;6311815;27;20925;-81
2023/06/05 06:09:41;;;;;;;2.80;2.63;;;20.90;43.30;;;;;;6310903;27;20319;-78
2023/06/05 06:12:46;;;;;;;8.33;3.10;;;21.20;42.70;;;;;;6317187;27;20768;-79
2023/06/05 06:15:51;;;;;;;6.47;2.60;;;21.40;42.90;;;;;;6308917;28;20229;-79
2023/06/05 06:18:55;;;;;;;2.93;2.70;;;21.50;41.90;;;;;;6308652;27;20261;-80
2023/06/05 06:22:01;;;;;;;3.03;2.60;;;21.50;42.00;;;;;;6314846;28;20233;-80
2023/06/05 06:25:04;;;;;;;4.37;2.90;;;21.70;42.50;;;;;;6303309;28;20237;-82
2023/06/05 06:28:07;;;;;;;4.13;3.23;;;21.90;42.10;;;;;;6314734;27;20256;-81
2023/06/05 06:31:12;;;;;;;2.80;2.60;;;22.20;42.70;;;;;;6309197;27;20884;-81
2023/06/05 06:34:16;;;;;;;5.63;2.77;;;22.20;41.20;;;;;;6312959;27;20788;-80
2023/06/05 06:37:19;;;;;;;5.37;3.20;;;22.50;42.70;;;;;;6307301;28;20724;-80
2023/06/05 06:40:23;;;;;;;5.53;3.00;;;22.70;42.80;;;;;;6306001;28;20239;-80
2023/06/05 06:43:26;;;;;;;7.57;2.90;;;22.90;41.10;;;;;;6315047;27;20237;-80
2023/06/05 06:46:31;;;;;;;5.40;2.93;;;23.10;41.10;;;;;;6318156;28;20236;-81
2023/06/05 06:49:34;;;;;;;5.73;3.13;;;23.10;41.20;;;;;;6338209;27;20208;-77
2023/06/05 06:52:37;;;;;;;2.93;2.83;;;23.40;40.90;;;;;;6336085;27;20249;-78
2023/06/05 06:55:41;;;;;;;3.33;2.60;;;23.80;40.60;;;;;;6347035;28;20219;-77
2023/06/05 06:58:45;;;;;;;5.10;3.47;;;24.20;40.20;;;;;;6353031;27;20216;-77
2023/06/05 07:02:08;;;;;;;6.40;2.90;;;24.20;39.40;;;;;;6348869;28;20229;-77
2023/06/05 07:05:13;;;;;;;10.23;3.50;;;24.00;40.20;;;;;;6343605;27;20209;-79
2023/06/05 07:08:16;;;;;;;5.37;2.90;;;23.50;40.50;;;;;;6344782;27;20244;-78
2023/06/05 07:11:19;;;;;;;5.37;3.10;;;23.20;40.40;;;;;;6345456;27;20241;-75
2023/06/05 07:14:23;;;;;;;5.10;3.07;;;23.20;40.10;;;;;;6343732;27;20243;-76
2023/06/05 07:17:29;;;;;;;3.73;2.57;;;23.10;40.10;;;;;;6340744;27;20217;-79
2023/06/05 07:20:33;;;;;;;3.13;2.70;;;23.10;40.50;;;;;;6334816;28;20245;-79
2023/06/05 07:23:36;;;;;;;3.10;2.80;;;23.40;40.40;;;;;;6346527;27;20228;-78
2023/06/05 07:26:40;;;;;;;7.60;2.70;;;23.50;40.60;;;;;;6361324;27;20223;-79
2023/06/05 07:29:43;;;;;;;6.00;2.67;;;23.60;40.50;;;;;;6351501;27;20392;-80
2023/06/05 07:32:48;;;;;;;4.90;2.90;;;23.60;40.10;;;;;;6348140;27;20240;-77
2023/06/05 07:35:51;;;;;;;2.97;2.73;;;23.60;39.40;;;;;;6335680;28;20258;-79
2023/06/05 07:38:54;;;;;;;2.70;2.50;;;23.60;39.70;;;;;;6348363;27;20232;-78
2023/06/05 07:41:57;;;;;;;4.77;3.17;;;23.50;39.40;;;;;;6335764;27;20244;-81
2023/06/05 07:45:01;;;;;;;2.90;2.70;;;23.40;39.20;;;;;;6318545;28;20251;-80
2023/06/05 07:48:05;;;;;;;4.23;2.50;;;23.30;39.40;;;;;;6315536;27;20246;-80
2023/06/05 07:51:10;;;;;;;2.90;2.70;;;23.30;39.10;;;;;;6311104;27;20247;-80
2023/06/05 07:54:15;;;;;;;4.40;2.47;;;23.30;39.30;;;;;;6303042;27;20677;-77
2023/06/05 07:57:19;;;;;;;2.20;2.20;;;23.20;38.80;;;;;;6314474;27;20244;-78
2023/06/05 08:00:25;;;;;;;3.83;3.20;;;23.10;39.20;;;;;;6305409;27;20317;-80
2023/06/05 08:03:30;;;;;;;3.03;2.40;;;23.10;39.20;;;;;;6309024;27;20248;-78
2023/06/05 08:06:37;;;;;;;2.50;2.40;;;23.10;39.60;;;;;;6314390;27;20229;-81
2023/06/05 08:09:41;;;;;;;3.83;2.80;;;23.10;39.50;;;;;;6310588;28;20306;-81
2023/06/05 08:12:44;;;;;;;3.73;2.63;;;23.20;39.80;;;;;;6316159;27;20224;-80
2023/06/05 08:15:47;;;;;;;4.10;2.93;;;23.10;39.50;;;;;;6313034;27;20224;-78
2023/06/05 08:18:52;;;;;;;5.50;2.83;;;22.90;39.50;;;;;;6308978;28;20233;-81
2023/06/05 08:21:56;;;;;;;2.87;2.57;;;22.90;40.00;;;;;;6312437;28;20233;-79
2023/06/05 08:25:00;;;;;;;2.60;2.50;;;22.90;40.30;;;;;;6304385;28;20237;-79
2023/06/05 08:28:03;;;;;;;5.97;2.57;;;22.80;39.40;;;;;;6310319;28;20236;-78
2023/06/05 08:31:06;;;;;;;7.07;2.60;;;22.90;39.80;;;;;;6310392;27;20875;-81
2023/06/05 08:34:11;;;;;;;2.10;2.10;;;23.00;39.10;;;;;;6314510;27;20716;-79
2023/06/05 08:37:15;;;;;;;4.83;2.60;;;23.10;38.10;;;;;;6305954;28;20313;-78
2023/06/05 08:40:20;;;;;;;18.63;3.90;;;23.20;38.40;;;;;;6319626;27;20238;-81
2023/06/05 08:43:23;;;;;;;8.07;3.07;;;23.40;38.80;;;;;;6310659;27;20233;-82
2023/06/05 08:46:30;;;;;;;3.80;2.10;;;23.60;38.40;;;;;;6339348;27;20247;-77
2023/06/05 08:49:41;;;;;;;9.13;2.63;;;23.70;38.00;;;;;;6340097;27;20225;-77
2023/06/05 08:52:45;;;;;;;3.60;2.40;;;24.00;37.80;;;;;;6341705;27;20263;-77
2023/06/05 08:55:54;;;;;;;3.97;2.83;;;24.20;38.20;;;;;;6368172;27;20368;-79
2023/06/05 08:58:58;;;;;;;3.43;2.40;;;24.40;38.30;;;;;;6367309;27;20212;-77
2023/06/05 09:02:01;;;;;;;2.90;2.70;;;24.70;37.90;;;;;;6367274;27;20292;-80
2023/06/05 09:05:06;;;;;;;2.60;2.50;;;24.90;37.20;;;;;;6372959;27;20253;-77
2023/06/05 09:08:10;;;;;;;7.93;3.20;;;24.80;36.90;;;;;;6369420;27;20261;-73
2023/06/05 09:11:23;;;;;;;7.57;3.20;;;25.00;37.50;;;;;;6368735;27;20255;-75
2023/06/05 09:14:27;;;;;;;2.70;2.50;;;25.00;38.00;;;;;;6357708;27;20248;-79
2023/06/05 09:17:30;;;;;;;7.60;2.70;;;25.30;36.90;;;;;;6361018;27;20493;-77
2023/06/05 09:20:37;;;;;;;3.60;2.30;;;25.10;36.70;;;;;;6362028;27;20220;-77
2023/06/05 09:23:41;;;;;;;3.17;2.50;;;25.00;37.10;;;;;;6360269;27;20281;-74
2023/06/05 09:27:03;;;;;;;2.40;2.30;;;25.20;37.00;;;;;;6361095;27;20208;-75
2023/06/05 09:30:07;;;;;;;2.37;2.13;;;25.00;36.70;;;;;;6360103;27;20232;-78
2023/06/05 09:33:11;;;;;;;2.70;2.50;;;25.10;36.50;;;;;;6355360;27;20232;-78
2023/06/05 09:36:15;;;;;;;2.10;2.10;;;25.00;36.80;;;;;;6338458;27;20232;-80
2023/06/05 09:39:21;;;;;;;2.60;2.50;;;25.00;36.70;;;;;;6323881;27;20314;-78
2023/06/05 09:42:32;;;;;;;5.37;2.60;;;25.10;36.80;;;;;;6330875;27;20300;-81
2023/06/05 09:45:43;;;;;;;2.90;2.70;;;25.20;36.60;;;;;;6329435;27;20462;-82
2023/06/05 09:48:59;;;;;;;3.07;2.97;;;25.10;36.30;;;;;;6332400;27;20236;-81
2023/06/05 09:52:03;;;;;;;4.57;2.47;;;25.30;37.10;;;;;;6330510;27;20232;-81
2023/06/05 09:55:08;;;;;;;2.70;2.60;;;25.20;36.80;;;;;;6329430;27;20720;-79
2023/06/05 09:58:14;;;;;;;6.70;2.77;;;25.20;37.20;;;;;;6324514;27;20309;-77
2023/06/05 10:01:19;;;;;;;2.87;2.30;;;25.20;36.30;;;;;;6330669;27;20243;-79
2023/06/05 10:04:24;;;;;;;2.37;2.27;;;25.10;36.00;;;;;;6331651;27;20297;-80
2023/06/05 10:07:30;;;;;;;2.63;2.43;;;25.00;36.00;;;;;;6330689;27;20238;-77
2023/06/05 10:10:35;;;;;;;2.50;2.40;;;25.00;36.00;;;;;;6317370;27;20228;-79
2023/06/05 10:13:38;;;;;;;2.80;2.60;;;24.80;36.50;;;;;;6327414;27;20236;-79
2023/06/05 10:16:44;;;;;;;2.27;2.20;;;24.70;36.70;;;;;;6327369;27;20229;-80
2023/06/05 10:19:47;;;;;;;2.77;2.30;;;24.60;37.00;;;;;;6330852;27;20307;-79
2023/06/05 10:22:52;;;;;;;2.67;2.57;;;24.70;36.50;;;;;;6335599;27;20331;-81
2023/06/05 10:25:57;;;;;;;3.23;2.90;;;24.90;36.60;;;;;;6332213;27;20297;-82
2023/06/05 10:29:18;;;;;;;4.20;2.70;;;25.00;36.70;;;;;;6329741;27;20409;-83
2023/06/05 10:32:34;;;;;;;3.07;2.90;;;24.90;36.20;;;;;;6329569;27;20402;-78
2023/06/05 10:35:48;;;;;;;2.57;2.50;;;25.00;36.20;;;;;;6331179;27;20232;-80
2023/06/05 10:38:53;;;;;;;2.83;2.43;;;25.00;36.80;;;;;;6340732;27;20636;-79
2023/06/05 10:41:58;;;;;;;3.27;2.97;;;25.10;36.20;;;;;;6331773;27;20676;-79
2023/06/05 10:45:02;;;;;;;2.77;2.67;;;25.10;36.30;;;;;;6337022;27;20266;-80
2023/06/05 10:48:05;;;;;;;2.20;2.20;;;25.10;36.70;;;;;;6337555;27;20235;-80
2023/06/05 10:51:37;;;;;;;2.70;2.50;;;25.20;36.90;;;;;;6330606;27;20232;-81
2023/06/05 10:54:57;;;;;;;3.23;2.63;;;25.40;35.90;;;;;;6336946;27;20235;-82
2023/06/05 10:58:09;;;;;;;2.70;2.50;;;25.40;36.40;;;;;;6329521;27;20236;-79
2023/06/05 11:01:20;;;;;;;2.90;2.70;;;25.30;36.60;;;;;;6332194;27;20244;-81
2023/06/05 11:04:25;;;;;;;3.10;2.90;;;25.20;36.50;;;;;;6327041;28;20354;-78
2023/06/05 11:07:30;;;;;;;4.33;2.47;;;25.10;36.00;;;;;;6326322;27;20239;-81
2023/06/05 11:10:35;;;;;;;4.57;2.63;;;25.00;36.30;;;;;;6330036;27;20240;-83
2023/06/05 11:13:58;;;;;;;3.33;3.10;;;25.20;37.20;;;;;;6316353;27;20275;-80
2023/06/05 11:17:29;;;;;;;2.90;2.70;;;25.40;36.70;;;;;;6312773;27;20259;-81
2023/06/05 11:20:50;;;;;;;2.77;2.60;;;25.60;36.30;;;;;;6318377;27;20225;-79
2023/06/05 11:24:15;;;;;;;2.47;2.27;;;25.80;36.10;;;;;;6313303;27;20823;-80
2023/06/05 11:27:42;;;;;;;2.40;2.30;;;26.00;35.80;;;;;;6298212;28;20708;-81
2023/06/05 11:30:46;;;;;;;12.13;4.00;;;26.00;35.50;;;;;;6307482;27;20750;-80
2023/06/05 11:33:53;;;;;;;3.43;3.20;;;26.00;35.00;;;;;;6312125;28;20244;-82
2023/06/05 11:36:57;;;;;;;2.97;2.70;;;25.90;35.20;;;;;;6312342;27;20237;-80
2023/06/05 11:40:04;;;;;;;5.50;3.93;;;26.00;35.00;;;;;;6305844;28;20245;-81
2023/06/05 11:43:09;;;;;;;2.90;2.80;;;26.00;35.10;;;;;;6303080;27;20282;-79
2023/06/05 11:46:12;;;;;;;3.20;3.00;;;25.90;35.00;;;;;;6301862;28;20233;-78
2023/06/05 11:49:28;;;;;;;3.40;3.03;;;25.80;35.20;;;;;;6310667;27;20236;-80
2023/06/05 11:52:32;;;;;;;3.87;3.33;;;25.80;35.30;;;;;;6302773;27;20283;-80
2023/06/05 11:55:54;;;;;;;4.67;3.20;;;25.80;35.00;;;;;;6306774;28;20241;-82
2023/06/05 11:58:57;;;;;;;3.60;3.30;;;25.90;35.20;;;;;;6308344;27;20234;-83
2023/06/05 12:02:00;;;;;;;2.90;2.70;;;26.00;35.30;;;;;;6317376;28;20236;-81
2023/06/05 12:05:07;;;;;;;3.47;2.97;;;26.10;35.20;;;;;;6304914;27;20229;-80
2023/06/05 12:08:22;;;;;;;3.00;2.80;;;26.20;35.30;;;;;;6314208;27;20738;-81
2023/06/05 12:11:28;;;;;;;3.23;2.93;;;26.20;35.00;;;;;;6302313;28;20244;-80
2023/06/05 12:14:33;;;;;;;3.10;2.60;;;26.20;35.30;;;;;;6310603;27;20339;-79
2023/06/05 12:17:36;;;;;;;3.50;3.20;;;26.40;35.00;;;;;;6310823;27;20232;-80
2023/06/05 12:20:40;;;;;;;3.00;2.83;;;26.50;35.50;;;;;;6312779;27;20228;-80
2023/06/05 12:23:44;;;;;;;3.40;3.20;;;26.60;35.00;;;;;;6303238;27;20253;-79
2023/06/05 12:26:54;;;;;;;5.33;3.10;;;26.50;35.40;;;;;;6312690;27;20231;-80
2023/06/05 12:29:58;;;;;;;3.00;2.70;;;26.40;34.80;;;;;;6305667;27;20232;-79
2023/06/05 12:33:05;;;;;;;7.60;2.90;;;26.20;35.20;;;;;;6306631;27;20732;-80
2023/06/05 12:36:10;;;;;;;3.13;2.73;;;26.10;35.40;;;;;;6319490;27;20815;-82
2023/06/05 12:39:17;;;;;;;3.10;2.90;;;26.10;35.30;;;;;;6315027;27;20844;-79
2023/06/05 12:42:20;;;;;;;3.30;2.73;;;26.20;35.40;;;;;;6334499;27;20231;-81
2023/06/05 12:45:24;;;;;;;2.70;2.60;;;26.20;35.40;;;;;;6336367;27;20315;-79
2023/06/05 12:48:27;;;;;;;3.53;3.43;;;26.40;35.60;;;;;;6332356;27;20954;-83
2023/06/05 12:51:32;;;;;;;10.17;3.07;;;26.50;34.80;;;;;;6329665;27;20239;-83
2023/06/05 12:54:36;;;;;;;3.40;3.30;;;26.60;34.40;;;;;;6328977;27;20708;-79
2023/06/05 12:57:40;;;;;;;3.30;3.10;;;26.70;33.90;;;;;;6332010;27;20315;-81
2023/06/05 13:00:44;;;;;;;3.10;2.83;;;26.60;34.40;;;;;;6328631;27;20247;-80
2023/06/05 13:03:47;;;;;;;3.37;3.17;;;26.80;34.90;;;;;;6323978;27;20228;-78
2023/06/05 13:06:53;;;;;;;3.33;3.10;;;26.90;34.70;;;;;;6331452;27;20225;-82
2023/06/05 13:09:57;;;;;;;3.10;3.00;;;27.00;33.90;;;;;;6332099;27;20279;-81
2023/06/05 13:13:00;;;;;;;3.27;2.93;;;26.90;34.70;;;;;;6328759;27;20260;-80
2023/06/05 13:16:06;;;;;;;3.53;3.33;;;26.80;34.00;;;;;;6333037;27;20240;-80
2023/06/05 13:19:10;;;;;;;3.50;3.30;;;26.70;35.00;;;;;;6333129;27;20236;-78
2023/06/05 13:22:15;;;;;;;3.47;3.37;;;26.80;34.40;;;;;;6328087;27;20246;-79
2023/06/05 13:25:20;;;;;;;3.17;2.97;;;26.70;34.20;;;;;;6327511;27;20236;-77
2023/06/05 13:28:23;;;;;;;3.67;3.20;;;26.50;34.20;;;;;;6326346;27;20319;-81
2023/06/05 13:31:28;;;;;;;3.47;3.20;;;26.70;34.10;;;;;;6335668;27;21046;-81
2023/06/05 13:34:32;;;;;;;6.10;3.50;;;26.60;34.10;;;;;;6328865;27;20250;-79
2023/06/05 13:37:37;;;;;;;3.60;3.30;;;26.50;34.00;;;;;;6336447;27;20781;-80
2023/06/05 13:40:42;;;;;;;3.43;3.23;;;26.50;34.70;;;;;;6330117;27;20224;-79
2023/06/05 13:43:46;;;;;;;3.53;3.23;;;26.60;34.30;;;;;;6324337;27;20228;-80
2023/06/05 13:46:49;;;;;;;3.23;3.10;;;26.50;34.20;;;;;;6334540;27;20253;-81
2023/06/05 13:49:53;;;;;;;5.63;3.30;;;26.60;33.90;;;;;;6335560;27;20228;-81
2023/06/05 13:52:57;;;;;;;3.37;3.27;;;26.60;33.90;;;;;;6330823;27;20239;-81
2023/06/05 13:56:00;;;;;;;4.33;4.10;;;26.70;33.60;;;;;;6328376;27;20289;-80
2023/06/05 13:59:03;;;;;;;3.47;3.17;;;26.70;34.00;;;;;;6334896;27;20668;-80
2023/06/05 14:02:07;;;;;;;3.03;2.83;;;26.70;34.10;;;;;;6320034;28;20642;-79
2023/06/05 14:05:11;;;;;;;3.13;3.03;;;26.70;34.20;;;;;;6330232;27;20730;-80
2023/06/05 14:08:16;;;;;;;3.73;3.50;;;26.80;34.10;;;;;;6331270;27;20741;-79
2023/06/05 14:11:20;;;;;;;3.07;2.90;;;26.90;33.90;;;;;;6328186;27;20303;-80
2023/06/05 14:14:24;;;;;;;2.97;2.87;;;26.90;34.00;;;;;;6334057;27;20254;-79
2023/06/05 14:17:27;;;;;;;3.53;3.23;;;27.00;34.40;;;;;;6334605;27;20869;-79
2023/06/05 14:20:31;;;;;;;4.97;3.93;;;27.10;34.00;;;;;;6333912;27;20251;-79
2023/06/05 14:23:38;;;;;;;4.00;3.63;;;27.10;34.10;;;;;;6338475;27;20437;-79
2023/06/05 14:26:41;;;;;;;3.33;3.03;;;27.00;34.60;;;;;;6326167;27;20639;-80
2023/06/05 14:29:44;;;;;;;3.00;2.90;;;27.10;33.90;;;;;;6334878;27;20233;-80
2023/06/05 14:32:47;;;;;;;3.50;3.30;;;27.10;34.10;;;;;;6334865;27;20234;-81
2023/06/05 14:35:51;;;;;;;3.60;3.33;;;27.10;34.20;;;;;;6321537;28;20220;-82
2023/06/05 14:38:55;;;;;;;3.20;3.00;;;27.10;34.00;;;;;;6334471;27;20239;-80
2023/06/05 14:42:00;;;;;;;3.37;3.17;;;27.10;34.00;;;;;;6332752;27;20319;-79
2023/06/05 14:45:03;;;;;;;3.30;3.20;;;27.20;34.00;;;;;;6336874;27;20297;-81
2023/06/05 14:48:09;;;;;;;3.20;3.20;;;27.10;33.40;;;;;;6336618;27;20893;-80
2023/06/05 14:51:12;;;;;;;3.87;3.50;;;27.10;34.00;;;;;;6337302;28;20324;-81
2023/06/05 14:54:17;;;;;;;3.50;3.40;;;27.10;34.10;;;;;;6325827;27;20232;-79
2023/06/05 14:57:20;;;;;;;3.47;3.20;;;27.20;34.40;;;;;;6322176;27;20267;-81
2023/06/05 15:00:23;;;;;;;3.43;3.20;;;27.20;34.20;;;;;;6335440;27;20357;-80
2023/06/05 15:03:27;;;;;;;4.17;3.70;;;27.10;34.30;;;;;;6321118;28;20236;-79
2023/06/05 15:06:30;;;;;;;3.37;3.17;;;27.00;34.30;;;;;;6334538;27;20907;-81
2023/06/05 15:09:34;;;;;;;3.33;3.23;;;27.00;34.50;;;;;;6331719;27;20239;-79
2023/06/05 15:12:38;;;;;;;2.97;2.90;;;26.90;34.70;;;;;;6346637;27;20265;-81
2023/06/05 15:15:42;;;;;;;3.40;3.30;;;26.90;34.70;;;;;;6351373;27;20319;-80
2023/06/05 15:18:48;;;;;;;3.27;3.17;;;26.90;34.70;;;;;;6334243;27;20233;-80
2023/06/05 15:21:50;;;;;;;3.30;3.20;;;26.90;34.60;;;;;;6335346;27;20397;-80
2023/06/05 15:24:55;;;;;;;3.33;3.13;;;26.80;35.10;;;;;;6331948;27;20259;-82
2023/06/05 15:27:59;;;;;;;3.50;3.20;;;26.60;34.70;;;;;;6333108;27;20228;-80
2023/06/05 15:31:02;;;;;;;3.63;3.17;;;26.50;35.10;;;;;;6333583;27;20744;-80
2023/06/05 15:34:05;;;;;;;3.73;3.53;;;26.40;35.00;;;;;;6333171;27;20755;-81
2023/06/05 15:37:08;;;;;;;3.57;3.33;;;26.00;35.50;;;;;;6330041;27;20232;-81
2023/06/05 15:40:13;;;;;;;3.07;2.80;;;26.00;35.70;;;;;;6329026;27;20293;-79
2023/06/05 15:43:18;;;;;;;3.30;3.10;;;26.00;36.10;;;;;;6337069;27;20243;-78
2023/06/05 15:46:22;;;;;;;3.47;3.23;;;26.00;35.90;;;;;;6339740;27;20273;-79
2023/06/05 15:49:25;;;;;;;3.03;2.93;;;26.20;35.90;;;;;;6341101;27;20734;-80
2023/06/05 15:52:30;;;;;;;2.93;2.83;;;26.40;36.00;;;;;;6323445;27;20332;-79
2023/06/05 15:55:38;;;;;;;3.00;2.90;;;26.60;35.80;;;;;;6330864;27;20731;-79
2023/06/05 15:58:41;;;;;;;3.30;3.00;;;26.50;35.60;;;;;;6328945;27;20892;-80
2023/06/05 16:01:46;;;;;;;3.37;3.13;;;26.60;35.80;;;;;;6329778;27;20256;-80